Time;durP1;ratioP1;P1;durP2;ratioP2;P2;SDS_P1;SDS_P2;PMS_P1;PMS_P2;Temp;Humidity;BMP_temperature;BMP_pressure;BME280_temperature;BME280_humidity;BME280_pressure;Samples;Min_cycle;Max_cycle;Signal;HPM_P1;HPM_P2
2021/10/25 00:00:42;;;;;;;18.23;15.37;;;4.80;99.90;;;;;;4986142;28;20658;-76
2021/10/25 00:03:08;;;;;;;20.00;16.00;;;4.70;99.90;;;;;;4994915;28;20693;-77
2021/10/25 00:05:34;;;;;;;21.03;15.87;;;4.80;99.90;;;;;;4993994;28;20176;-75
2021/10/25 00:07:59;;;;;;;20.13;15.70;;;4.70;99.90;;;;;;4995167;28;20183;-77
2021/10/25 00:10:25;;;;;;;18.37;14.87;;;4.80;99.90;;;;;;4995153;28;20186;-76
2021/10/25 00:12:51;;;;;;;17.70;15.10;;;4.60;99.90;;;;;;4990113;28;20211;-82
2021/10/25 00:15:17;;;;;;;18.57;14.60;;;4.60;99.90;;;;;;4985507;28;20245;-77
2021/10/25 00:17:43;;;;;;;20.70;15.60;;;4.50;99.90;;;;;;5007932;28;20550;-76
2021/10/25 00:20:09;;;;;;;19.87;14.83;;;4.50;99.90;;;;;;4994980;28;20186;-76
2021/10/25 00:22:36;;;;;;;21.70;15.83;;;4.50;99.90;;;;;;4982118;28;20233;-77
2021/10/25 00:25:01;;;;;;;17.93;14.73;;;4.40;99.90;;;;;;4994677;28;20241;-77
2021/10/25 00:27:28;;;;;;;18.53;15.03;;;4.50;99.90;;;;;;4994789;28;20254;-76
2021/10/25 00:29:53;;;;;;;16.57;13.97;;;4.40;99.90;;;;;;4993603;28;20271;-75
2021/10/25 00:32:19;;;;;;;17.40;14.93;;;4.50;99.90;;;;;;4993947;28;20269;-75
2021/10/25 00:34:44;;;;;;;19.13;14.93;;;4.50;99.90;;;;;;4990561;28;20198;-77
2021/10/25 00:37:10;;;;;;;17.77;15.70;;;4.50;99.90;;;;;;4994703;28;20209;-76
2021/10/25 00:39:36;;;;;;;19.57;14.40;;;4.80;99.90;;;;;;4994370;28;20689;-76
2021/10/25 00:42:02;;;;;;;21.87;14.97;;;4.50;99.90;;;;;;4993114;28;20292;-79
2021/10/25 00:44:30;;;;;;;17.40;14.97;;;4.40;99.90;;;;;;4993285;28;20204;-76
2021/10/25 00:46:56;;;;;;;18.27;15.03;;;4.30;99.90;;;;;;4994467;28;20245;-76
2021/10/25 00:49:23;;;;;;;19.63;15.47;;;4.40;99.90;;;;;;4994206;28;20183;-76
2021/10/25 00:51:50;;;;;;;18.57;15.77;;;4.40;99.90;;;;;;4997120;28;20189;-75
2021/10/25 00:54:16;;;;;;;20.90;15.83;;;4.40;99.90;;;;;;4994234;28;20720;-74
2021/10/25 00:56:43;;;;;;;19.13;15.90;;;4.40;99.90;;;;;;4992705;28;20188;-77
2021/10/25 00:59:10;;;;;;;19.73;15.90;;;4.50;99.90;;;;;;4994226;28;20205;-77
2021/10/25 01:01:36;;;;;;;22.10;16.00;;;4.40;99.90;;;;;;4994139;28;20197;-75
2021/10/25 01:04:02;;;;;;;19.10;16.67;;;4.50;99.90;;;;;;4994153;28;20271;-77
2021/10/25 01:06:29;;;;;;;20.60;15.23;;;4.50;99.90;;;;;;4992900;28;20181;-75
2021/10/25 01:08:56;;;;;;;18.07;14.40;;;4.40;99.90;;;;;;4994126;28;20223;-75
2021/10/25 01:11:24;;;;;;;17.03;15.23;;;4.40;99.90;;;;;;4993861;28;20179;-75
2021/10/25 01:13:51;;;;;;;21.57;16.17;;;4.40;99.90;;;;;;4992304;28;20201;-75
2021/10/25 01:16:17;;;;;;;20.00;16.00;;;4.50;99.90;;;;;;4992598;28;20190;-74
2021/10/25 01:18:45;;;;;;;22.20;16.67;;;4.40;99.90;;;;;;4992673;28;20174;-77
2021/10/25 01:21:12;;;;;;;18.87;16.20;;;4.40;99.90;;;;;;4993974;28;20183;-77
2021/10/25 01:23:37;;;;;;;21.20;16.53;;;4.40;99.90;;;;;;4992119;28;20223;-76
2021/10/25 01:26:04;;;;;;;20.60;16.17;;;4.40;99.90;;;;;;4993823;28;20546;-77
2021/10/25 01:28:30;;;;;;;22.43;16.40;;;4.40;99.90;;;;;;4993872;28;20169;-76
2021/10/25 01:30:55;;;;;;;18.17;14.90;;;4.40;99.90;;;;;;4993491;28;20286;-76
2021/10/25 01:33:21;;;;;;;21.20;15.63;;;4.50;99.90;;;;;;4993566;28;20711;-76
2021/10/25 01:35:47;;;;;;;20.23;16.37;;;4.50;99.90;;;;;;4992463;28;20536;-75
2021/10/25 01:38:12;;;;;;;20.77;15.87;;;4.40;99.90;;;;;;4992362;28;20183;-76
2021/10/25 01:40:38;;;;;;;21.77;15.00;;;4.50;99.90;;;;;;4993518;28;20210;-77
2021/10/25 01:43:05;;;;;;;20.97;15.93;;;4.40;99.90;;;;;;4993529;28;20198;-76
2021/10/25 01:45:31;;;;;;;22.37;15.73;;;4.40;99.90;;;;;;4993577;28;20205;-75
2021/10/25 01:47:57;;;;;;;17.83;14.70;;;4.40;99.90;;;;;;4992371;28;20210;-77
2021/10/25 01:50:23;;;;;;;18.40;15.53;;;4.40;99.90;;;;;;4993507;28;20189;-75
2021/10/25 01:52:50;;;;;;;19.80;14.83;;;4.40;99.90;;;;;;4993474;28;20261;-75
2021/10/25 01:55:16;;;;;;;23.73;16.90;;;4.40;99.90;;;;;;4992148;28;20206;-77
2021/10/25 01:57:41;;;;;;;34.10;20.63;;;4.30;99.90;;;;;;4993502;28;20175;-75
2021/10/25 02:00:07;;;;;;;30.70;19.23;;;4.30;99.90;;;;;;4992580;28;20240;-76
2021/10/25 02:02:33;;;;;;;23.10;17.20;;;4.40;99.90;;;;;;4999827;28;20205;-76
2021/10/25 02:05:01;;;;;;;23.13;16.63;;;4.40;99.90;;;;;;4990124;28;20254;-76
2021/10/25 02:07:28;;;;;;;20.13;15.97;;;4.40;99.90;;;;;;4992200;28;20274;-76
2021/10/25 02:09:54;;;;;;;17.60;15.43;;;4.40;99.90;;;;;;4992754;28;20181;-77
2021/10/25 02:12:20;;;;;;;31.27;18.43;;;4.40;99.90;;;;;;4992982;28;20186;-77
2021/10/25 02:14:46;;;;;;;22.10;16.23;;;4.40;99.90;;;;;;4992248;28;20618;-76
2021/10/25 02:17:12;;;;;;;23.50;17.20;;;4.40;99.90;;;;;;4990420;28;20190;-77
2021/10/25 02:19:39;;;;;;;17.63;14.97;;;4.40;99.90;;;;;;4979354;28;20191;-81
2021/10/25 02:22:05;;;;;;;31.37;19.87;;;4.40;99.90;;;;;;4989709;28;20221;-77
2021/10/25 02:24:31;;;;;;;23.07;16.73;;;4.30;99.90;;;;;;4990975;28;20604;-78
2021/10/25 02:26:57;;;;;;;17.40;13.97;;;4.30;99.90;;;;;;4990273;28;20182;-77
2021/10/25 02:29:23;;;;;;;96.93;33.47;;;4.40;99.90;;;;;;4984425;28;20194;-76
2021/10/25 02:31:49;;;;;;;24.83;16.83;;;4.30;99.90;;;;;;4991336;28;20184;-75
2021/10/25 02:34:16;;;;;;;52.57;23.80;;;4.20;99.90;;;;;;4991487;28;20202;-77
2021/10/25 02:36:42;;;;;;;71.67;27.87;;;4.20;99.90;;;;;;4980343;28;20731;-76
2021/10/25 02:39:08;;;;;;;61.77;26.73;;;4.30;99.90;;;;;;4993275;28;20256;-75
2021/10/25 02:41:34;;;;;;;30.23;18.47;;;4.30;99.90;;;;;;4994077;28;20660;-76
2021/10/25 02:44:00;;;;;;;447.77;172.77;;;4.30;99.90;;;;;;4991661;28;20194;-77
2021/10/25 02:46:25;;;;;;;73.20;32.83;;;4.20;99.90;;;;;;4993026;28;20538;-75
2021/10/25 02:48:51;;;;;;;46.17;23.50;;;4.20;99.90;;;;;;4991628;28;20230;-75
2021/10/25 02:51:17;;;;;;;47.93;28.30;;;4.20;99.90;;;;;;4992921;28;20669;-73
2021/10/25 02:53:43;;;;;;;59.90;29.23;;;4.20;99.90;;;;;;4992989;28;20197;-76
2021/10/25 02:56:08;;;;;;;41.73;22.43;;;4.20;99.90;;;;;;4992942;28;20238;-76
2021/10/25 02:58:35;;;;;;;41.50;23.03;;;4.20;99.90;;;;;;4993934;28;20175;-77
2021/10/25 03:01:00;;;;;;;30.70;18.37;;;4.30;99.90;;;;;;4996517;28;20177;-76
2021/10/25 03:03:26;;;;;;;22.00;16.60;;;4.20;99.90;;;;;;4994847;28;20213;-77
2021/10/25 03:05:52;;;;;;;22.53;17.30;;;4.30;99.90;;;;;;4995310;28;20179;-78
2021/10/25 03:08:18;;;;;;;22.97;17.47;;;4.20;99.90;;;;;;4995093;28;20195;-76
2021/10/25 03:10:44;;;;;;;20.10;15.70;;;4.20;99.90;;;;;;4996271;28;20237;-76
2021/10/25 03:13:10;;;;;;;20.73;16.03;;;4.10;99.90;;;;;;4996252;28;20272;-76
2021/10/25 03:15:36;;;;;;;19.07;15.33;;;4.10;99.90;;;;;;4994493;28;20183;-75
2021/10/25 03:18:02;;;;;;;22.60;17.40;;;4.10;99.90;;;;;;4998406;28;20184;-75
2021/10/25 03:20:28;;;;;;;22.33;15.60;;;4.10;99.90;;;;;;4992536;28;20186;-75
2021/10/25 03:22:53;;;;;;;21.47;15.47;;;4.20;99.90;;;;;;4994664;28;20699;-77
2021/10/25 03:25:19;;;;;;;20.07;15.50;;;4.20;99.90;;;;;;4995326;28;20213;-77
2021/10/25 03:27:46;;;;;;;20.10;16.03;;;4.20;99.90;;;;;;4996053;28;20170;-76
2021/10/25 03:30:12;;;;;;;18.27;15.30;;;4.20;99.90;;;;;;4995696;28;20253;-75
2021/10/25 03:32:38;;;;;;;18.83;15.93;;;4.20;99.90;;;;;;4995809;28;20675;-77
2021/10/25 03:35:05;;;;;;;18.93;15.10;;;4.30;99.90;;;;;;4995550;28;20200;-74
2021/10/25 03:37:33;;;;;;;18.93;15.40;;;4.30;99.90;;;;;;4995639;28;20189;-76
2021/10/25 03:40:00;;;;;;;21.17;15.90;;;4.30;99.90;;;;;;4995738;28;20188;-77
2021/10/25 03:42:28;;;;;;;23.50;16.70;;;4.20;99.90;;;;;;4995678;28;20193;-76
2021/10/25 03:50:26;;;;;;;21.40;16.37;;;4.30;99.90;;;;;;4988946;28;20218;-77
2021/10/25 04:28:08;;;;;;;17.27;14.13;;;4.00;99.90;;;;;;4995008;28;20188;-78
2021/10/25 04:30:35;;;;;;;18.97;15.10;;;4.00;99.90;;;;;;4992897;28;20197;-77
2021/10/25 04:33:01;;;;;;;20.80;15.27;;;4.00;99.90;;;;;;5007649;28;20196;-77
2021/10/25 04:35:27;;;;;;;21.77;15.60;;;4.10;99.90;;;;;;4993437;28;20567;-74
2021/10/25 04:37:54;;;;;;;18.70;14.33;;;4.00;99.90;;;;;;4994624;28;20177;-76
2021/10/25 04:40:19;;;;;;;19.37;14.40;;;3.90;99.90;;;;;;5008826;28;20204;-75
2021/10/25 04:42:46;;;;;;;18.43;15.13;;;4.00;99.90;;;;;;4994083;28;20230;-75
2021/10/25 04:45:12;;;;;;;18.90;14.20;;;4.00;99.90;;;;;;4993584;28;20204;-76
2021/10/25 04:47:38;;;;;;;21.20;15.03;;;4.00;99.90;;;;;;4993287;28;20200;-76
2021/10/25 04:50:05;;;;;;;21.03;15.67;;;3.90;99.90;;;;;;4994270;28;20648;-76
2021/10/25 04:52:31;;;;;;;19.30;15.33;;;4.00;99.90;;;;;;4992997;28;20647;-76
2021/10/25 04:54:57;;;;;;;19.77;14.80;;;4.00;99.90;;;;;;4994519;28;20743;-76
2021/10/25 04:57:23;;;;;;;18.80;14.97;;;4.00;99.90;;;;;;4994261;28;20183;-75
2021/10/25 04:59:48;;;;;;;20.07;15.30;;;4.20;99.90;;;;;;4993021;28;20264;-77
2021/10/25 05:02:14;;;;;;;20.10;15.43;;;4.40;99.90;;;;;;4994191;28;20201;-77
2021/10/25 05:04:41;;;;;;;16.70;14.33;;;4.10;99.90;;;;;;4994050;28;20189;-75
2021/10/25 05:07:07;;;;;;;19.17;15.10;;;4.20;99.90;;;;;;4993873;28;20226;-76
2021/10/25 05:09:33;;;;;;;21.03;14.93;;;4.10;99.90;;;;;;4993492;28;20176;-76
2021/10/25 05:12:00;;;;;;;19.70;15.40;;;4.20;99.90;;;;;;4993712;28;20697;-76
2021/10/25 05:14:26;;;;;;;18.30;15.37;;;4.20;99.90;;;;;;4993029;28;20204;-78
2021/10/25 05:16:51;;;;;;;18.97;14.93;;;4.20;99.90;;;;;;4993262;28;20644;-76
2021/10/25 05:19:17;;;;;;;18.97;14.83;;;4.20;99.90;;;;;;4992414;28;20260;-77
2021/10/25 05:21:42;;;;;;;19.13;15.20;;;4.20;99.90;;;;;;4991444;28;20657;-79
2021/10/25 05:24:08;;;;;;;19.00;14.40;;;4.20;99.90;;;;;;4992232;28;20235;-76
2021/10/25 05:26:34;;;;;;;17.80;14.47;;;4.20;99.90;;;;;;4993777;28;20203;-76
2021/10/25 05:29:00;;;;;;;19.27;14.00;;;4.10;99.90;;;;;;4993891;28;20171;-75
2021/10/25 05:31:26;;;;;;;21.90;15.90;;;4.10;99.90;;;;;;4993670;28;20228;-75
2021/10/25 05:33:52;;;;;;;19.57;14.90;;;4.00;99.90;;;;;;4992841;28;20197;-75
2021/10/25 05:36:18;;;;;;;22.23;16.10;;;4.00;99.90;;;;;;5007888;28;20653;-74
2021/10/25 05:38:43;;;;;;;18.07;14.47;;;4.00;99.90;;;;;;4993421;28;20187;-75
2021/10/25 05:41:11;;;;;;;17.53;15.03;;;3.90;99.90;;;;;;4991752;28;20618;-76
2021/10/25 05:43:37;;;;;;;20.27;15.80;;;4.00;99.90;;;;;;4992792;28;20219;-75
2021/10/25 05:46:03;;;;;;;21.27;15.80;;;4.00;99.90;;;;;;4993494;28;20177;-75
2021/10/25 05:48:29;;;;;;;20.50;16.10;;;4.10;99.90;;;;;;4992300;28;20186;-76
2021/10/25 05:50:54;;;;;;;20.77;16.40;;;4.20;99.90;;;;;;4993779;28;20645;-75
2021/10/25 05:53:20;;;;;;;20.97;16.63;;;4.20;99.90;;;;;;4993307;28;20260;-74
2021/10/25 05:55:47;;;;;;;21.50;16.27;;;4.20;99.90;;;;;;4992040;28;20204;-77
2021/10/25 05:58:19;;;;;;;24.43;16.97;;;4.20;99.90;;;;;;4992711;28;20188;-75
2021/10/25 06:00:56;;;;;;;22.60;16.60;;;4.30;99.90;;;;;;4992896;28;20253;-77
2021/10/25 06:03:24;;;;;;;21.43;16.03;;;4.30;99.90;;;;;;5008321;28;20208;-75
2021/10/25 06:05:50;;;;;;;23.80;16.43;;;4.40;99.90;;;;;;4992227;28;20183;-76
2021/10/25 06:08:17;;;;;;;20.87;16.33;;;4.40;99.90;;;;;;4991467;28;20201;-76
2021/10/25 06:10:43;;;;;;;19.33;14.87;;;4.40;99.90;;;;;;4994237;28;20176;-75
2021/10/25 06:13:15;;;;;;;19.77;15.30;;;4.40;99.90;;;;;;4991185;28;20665;-76
2021/10/25 06:15:41;;;;;;;22.50;14.90;;;4.40;99.90;;;;;;4991233;28;20304;-76
2021/10/25 06:18:09;;;;;;;22.37;15.30;;;4.30;99.90;;;;;;4990532;28;20269;-77
2021/10/25 06:20:37;;;;;;;24.57;15.87;;;4.30;99.90;;;;;;4992192;28;20630;-76
2021/10/25 06:23:12;;;;;;;20.03;15.03;;;4.30;99.90;;;;;;4991648;28;20307;-77
2021/10/25 06:25:39;;;;;;;23.50;15.67;;;4.40;99.90;;;;;;4992570;28;20232;-75
2021/10/25 06:28:06;;;;;;;24.07;15.23;;;4.50;99.90;;;;;;4993138;28;20186;-76
2021/10/25 06:30:33;;;;;;;18.83;15.17;;;4.40;99.90;;;;;;4996024;28;20538;-76
2021/10/25 06:32:58;;;;;;;22.17;16.00;;;4.40;99.90;;;;;;5008248;28;20662;-75
2021/10/25 06:35:26;;;;;;;21.53;15.90;;;4.50;99.90;;;;;;4996310;28;20178;-75
2021/10/25 06:38:03;;;;;;;20.57;15.87;;;4.50;99.90;;;;;;4996641;28;20215;-76
2021/10/25 06:40:29;;;;;;;20.47;15.70;;;4.50;99.90;;;;;;4996131;28;20265;-76
2021/10/25 06:42:55;;;;;;;24.80;15.93;;;4.50;99.90;;;;;;4995560;28;20206;-76
2021/10/25 06:45:22;;;;;;;21.60;15.90;;;4.50;99.90;;;;;;4996696;28;20201;-76
2021/10/25 06:47:49;;;;;;;25.50;16.03;;;4.50;99.90;;;;;;4996442;28;20236;-76
2021/10/25 06:50:17;;;;;;;25.80;17.27;;;4.50;99.90;;;;;;4995499;28;20181;-75
2021/10/25 06:52:43;;;;;;;28.07;17.80;;;4.60;99.90;;;;;;4995367;28;20181;-76
2021/10/25 06:55:09;;;;;;;28.23;17.83;;;4.60;99.90;;;;;;4996077;28;20208;-77
2021/10/25 06:57:35;;;;;;;32.50;18.20;;;4.60;99.90;;;;;;4996211;28;20189;-75
2021/10/25 07:00:04;;;;;;;36.67;20.07;;;4.60;99.90;;;;;;4996563;28;20197;-75
2021/10/25 07:02:30;;;;;;;44.73;22.53;;;4.60;99.90;;;;;;4996353;28;20211;-76
2021/10/25 07:04:56;;;;;;;35.87;21.13;;;4.70;99.90;;;;;;4996072;28;20211;-75
2021/10/25 07:07:25;;;;;;;35.90;22.60;;;4.60;99.90;;;;;;4994641;28;20193;-76
2021/10/25 07:09:51;;;;;;;46.20;23.03;;;4.60;99.90;;;;;;4992145;28;20182;-77
2021/10/25 07:12:17;;;;;;;67.90;23.70;;;4.60;99.90;;;;;;4994704;28;20190;-76
2021/10/25 07:14:44;;;;;;;70.63;25.57;;;4.60;99.90;;;;;;4993510;28;20582;-76
2021/10/25 08:03:29;;;;;;;34.23;23.43;;;4.80;99.90;;;;;;4994524;28;20215;-75
2021/10/25 08:11:10;;;;;;;37.57;25.30;;;4.80;99.90;;;;;;4993986;28;20178;-76
2021/10/25 08:13:45;;;;;;;38.00;24.80;;;4.80;99.90;;;;;;5009216;28;20257;-75
2021/10/25 08:21:19;;;;;;;45.20;26.23;;;4.90;99.90;;;;;;4992629;28;20220;-73
2021/10/25 08:23:45;;;;;;;45.30;26.70;;;4.90;99.90;;;;;;4995712;28;20293;-75
2021/10/25 08:26:11;;;;;;;51.40;28.93;;;4.90;99.90;;;;;;5008173;28;20188;-74
2021/10/25 08:28:37;;;;;;;46.67;28.57;;;5.00;99.90;;;;;;4993091;28;20183;-77
2021/10/25 08:31:06;;;;;;;47.33;30.23;;;4.90;99.90;;;;;;4993797;28;20539;-76
2021/10/25 08:41:25;;;;;;;46.50;29.03;;;5.00;99.90;;;;;;4994856;28;20191;-78
2021/10/25 08:43:52;;;;;;;51.77;30.40;;;5.00;99.90;;;;;;4994361;28;20210;-74
2021/10/25 08:46:20;;;;;;;60.77;31.67;;;5.00;99.90;;;;;;4994388;28;20218;-71
2021/10/25 08:48:47;;;;;;;61.60;33.07;;;5.10;99.90;;;;;;4994400;28;20318;-75
2021/10/25 08:51:15;;;;;;;64.77;32.57;;;5.10;99.90;;;;;;4993980;28;20179;-75
2021/10/25 08:53:41;;;;;;;62.67;32.20;;;5.30;99.90;;;;;;4993620;28;20673;-76
2021/10/25 08:56:07;;;;;;;58.67;31.70;;;5.40;99.90;;;;;;4993357;28;20194;-75
2021/10/25 08:58:36;;;;;;;63.60;32.47;;;5.40;99.90;;;;;;4992174;28;20183;-73
2021/10/25 09:01:03;;;;;;;59.07;32.60;;;5.40;99.90;;;;;;4994327;28;20183;-76
2021/10/25 09:03:29;;;;;;;57.47;32.50;;;5.40;99.90;;;;;;4994180;28;20214;-75
2021/10/25 09:05:57;;;;;;;69.93;38.10;;;5.40;99.90;;;;;;4992659;28;20190;-76
2021/10/25 09:08:24;;;;;;;75.53;34.23;;;5.50;99.90;;;;;;4994283;28;20264;-78
2021/10/25 09:10:50;;;;;;;65.93;33.83;;;5.50;99.90;;;;;;4994399;28;20183;-73
2021/10/25 09:13:19;;;;;;;69.07;34.43;;;5.50;99.90;;;;;;4994044;28;20186;-75
2021/10/25 09:15:51;;;;;;;66.70;34.90;;;5.50;99.90;;;;;;4993618;28;20179;-76
2021/10/25 09:18:19;;;;;;;73.17;38.80;;;5.60;99.90;;;;;;4994214;28;20183;-76
2021/10/25 09:20:51;;;;;;;73.60;37.90;;;5.70;99.90;;;;;;4993901;28;20198;-75
2021/10/25 09:23:22;;;;;;;71.50;37.73;;;5.70;99.90;;;;;;4992825;28;20278;-74
2021/10/25 09:25:56;;;;;;;78.83;40.67;;;5.80;99.90;;;;;;4993278;28;20524;-76
2021/10/25 09:28:26;;;;;;;73.70;39.43;;;5.90;99.90;;;;;;4993206;28;20715;-77
2021/10/25 09:30:57;;;;;;;80.33;39.97;;;5.90;99.90;;;;;;4993625;28;20176;-75
2021/10/25 09:33:26;;;;;;;75.50;42.13;;;6.00;99.90;;;;;;4993679;28;20670;-77
2021/10/25 09:35:57;;;;;;;80.47;41.03;;;6.10;99.90;;;;;;4993514;28;20176;-76
2021/10/25 09:38:37;;;;;;;73.00;39.20;;;6.30;99.90;;;;;;4993820;28;20612;-77
2021/10/25 09:49:13;;;;;;;83.17;39.07;;;6.30;99.90;;;;;;4993887;28;20214;-75
2021/10/25 09:51:50;;;;;;;78.87;38.60;;;6.30;99.90;;;;;;4993385;28;20205;-75
2021/10/25 09:54:21;;;;;;;69.20;36.77;;;6.50;99.90;;;;;;4992129;28;20195;-75
2021/10/25 09:57:02;;;;;;;62.80;36.03;;;6.40;99.90;;;;;;4993490;28;20175;-76
2021/10/25 09:59:48;;;;;;;68.07;36.07;;;6.40;99.90;;;;;;4993461;28;20665;-76
2021/10/25 10:02:16;;;;;;;62.97;35.60;;;6.50;99.90;;;;;;4993480;28;20200;-78
2021/10/25 10:04:45;;;;;;;61.57;35.00;;;6.60;99.90;;;;;;4993070;28;20227;-76
2021/10/25 10:07:15;;;;;;;57.23;35.17;;;6.60;99.90;;;;;;4993336;28;20172;-76
2021/10/25 10:09:47;;;;;;;53.83;32.27;;;6.60;99.90;;;;;;4995436;28;20198;-77
2021/10/25 10:12:18;;;;;;;47.83;29.27;;;6.70;99.90;;;;;;4997176;28;20179;-75
2021/10/25 10:14:45;;;;;;;45.63;29.40;;;6.80;99.90;;;;;;4993538;28;20200;-74
2021/10/25 10:17:13;;;;;;;49.87;30.10;;;6.90;99.90;;;;;;4995066;28;20246;-76
2021/10/25 10:19:41;;;;;;;47.33;30.67;;;7.00;99.90;;;;;;4997212;28;20222;-76
2021/10/25 10:22:08;;;;;;;51.00;30.77;;;7.00;99.90;;;;;;5005107;28;20175;-75
2021/10/25 10:24:35;;;;;;;48.83;31.40;;;7.00;99.90;;;;;;5000958;28;20212;-76
2021/10/25 10:27:06;;;;;;;48.50;31.40;;;7.10;99.90;;;;;;5012408;28;20198;-75
2021/10/25 10:29:37;;;;;;;46.77;31.33;;;7.10;99.90;;;;;;5008369;28;20183;-75
2021/10/25 10:32:07;;;;;;;43.40;29.27;;;7.20;99.90;;;;;;4995829;28;20182;-76
2021/10/25 10:34:44;;;;;;;47.43;30.47;;;7.30;99.90;;;;;;5010653;28;20191;-77
2021/10/25 10:37:22;;;;;;;46.17;28.63;;;7.40;99.90;;;;;;4996301;28;20180;-77
2021/10/25 10:40:22;;;;;;;43.87;29.60;;;7.50;99.90;;;;;;4995559;28;20187;-77
2021/10/25 10:42:52;;;;;;;40.40;28.13;;;7.60;99.90;;;;;;4989635;28;20214;-76
2021/10/25 10:45:21;;;;;;;46.03;29.93;;;7.70;99.90;;;;;;4993378;28;23265;-77
2021/10/25 10:47:58;;;;;;;39.67;26.67;;;7.70;99.90;;;;;;4993880;28;20175;-77
2021/10/25 10:50:47;;;;;;;36.93;25.70;;;7.80;99.90;;;;;;4994049;28;20186;-79
2021/10/25 10:53:18;;;;;;;36.30;24.67;;;7.90;99.90;;;;;;4994464;28;20186;-76
2021/10/25 10:55:50;;;;;;;34.17;25.17;;;8.10;99.90;;;;;;4994771;28;20260;-76
2021/10/25 10:58:28;;;;;;;38.57;26.63;;;8.20;99.90;;;;;;4993000;28;20183;-76
2021/10/25 11:01:05;;;;;;;36.50;26.20;;;8.20;99.90;;;;;;4992068;28;20172;-76
2021/10/25 11:03:31;;;;;;;36.87;26.17;;;8.40;99.90;;;;;;4993251;28;20257;-78
2021/10/25 11:06:03;;;;;;;36.13;25.37;;;8.50;99.90;;;;;;4994826;28;20218;-77
2021/10/25 11:08:44;;;;;;;33.80;24.33;;;8.60;99.90;;;;;;4994498;28;20183;-75
2021/10/25 11:11:13;;;;;;;33.40;24.00;;;8.80;99.90;;;;;;4992410;28;20172;-79
2021/10/25 11:14:02;;;;;;;31.33;23.10;;;8.80;99.90;;;;;;4994226;28;20675;-76
2021/10/25 11:19:14;;;;;;;37.20;27.73;;;8.90;99.90;;;;;;4991617;28;20751;-78
2021/10/25 11:21:46;;;;;;;35.97;25.80;;;8.80;99.90;;;;;;4995055;28;20216;-79
2021/10/25 11:24:17;;;;;;;39.63;27.40;;;8.60;99.90;;;;;;4991331;28;20218;-77
2021/10/25 11:26:53;;;;;;;38.17;26.53;;;8.60;99.90;;;;;;4992628;28;20231;-76
2021/10/25 11:29:27;;;;;;;36.27;25.23;;;8.80;99.90;;;;;;4994107;28;20187;-76
2021/10/25 11:32:00;;;;;;;33.97;24.90;;;8.80;99.90;;;;;;4994681;28;20264;-77
2021/10/25 11:34:39;;;;;;;32.60;24.57;;;9.00;99.90;;;;;;4994334;28;20196;-77
2021/10/25 11:37:18;;;;;;;39.63;27.07;;;9.10;99.90;;;;;;4990137;28;20226;-78
2021/10/25 11:39:48;;;;;;;34.17;25.23;;;8.80;99.90;;;;;;4989588;28;20175;-79
2021/10/25 11:42:20;;;;;;;37.13;26.00;;;9.30;99.90;;;;;;4988637;28;22582;-76
2021/10/25 11:44:48;;;;;;;31.77;23.47;;;9.30;99.90;;;;;;4990503;28;20224;-76
2021/10/25 11:47:25;;;;;;;32.57;24.43;;;9.30;99.90;;;;;;4990320;28;20191;-76
2021/10/25 11:49:59;;;;;;;33.07;24.40;;;9.50;99.90;;;;;;4990767;28;20546;-78
2021/10/25 11:52:25;;;;;;;34.53;24.93;;;9.50;99.90;;;;;;4992881;28;20254;-78
2021/10/25 11:54:53;;;;;;;34.27;24.73;;;9.50;99.90;;;;;;4992162;28;20286;-77
2021/10/25 11:57:20;;;;;;;37.03;26.33;;;9.40;99.90;;;;;;4992928;28;21492;-77
2021/10/25 12:00:10;;;;;;;36.40;25.47;;;9.50;99.90;;;;;;4990207;28;20186;-77
2021/10/25 12:02:36;;;;;;;35.53;24.90;;;9.50;99.90;;;;;;4993594;28;20267;-76
2021/10/25 12:05:03;;;;;;;40.10;26.93;;;9.50;99.90;;;;;;4989251;28;20299;-79
2021/10/25 12:07:29;;;;;;;35.57;25.20;;;9.60;99.90;;;;;;4991061;28;20168;-77
2021/10/25 12:10:03;;;;;;;33.23;24.87;;;9.60;99.90;;;;;;4992965;28;20227;-79
2021/10/25 12:12:29;;;;;;;38.33;27.00;;;9.60;99.90;;;;;;4991584;28;20262;-77
2021/10/25 12:15:01;;;;;;;33.83;25.27;;;9.70;99.90;;;;;;4989579;28;20205;-77
2021/10/25 12:17:36;;;;;;;38.37;25.93;;;9.90;99.90;;;;;;5004593;28;20215;-77
2021/10/25 12:20:08;;;;;;;32.60;24.07;;;9.90;99.90;;;;;;4995949;28;20307;-80
2021/10/25 12:22:34;;;;;;;32.73;25.30;;;10.00;99.90;;;;;;4990768;28;20200;-76
2021/10/25 12:25:01;;;;;;;34.03;25.17;;;10.10;99.90;;;;;;5007938;28;20746;-76
2021/10/25 12:27:40;;;;;;;30.20;22.33;;;10.30;99.90;;;;;;4987387;28;20225;-77
2021/10/25 12:30:14;;;;;;;26.30;21.07;;;10.50;99.90;;;;;;5005636;28;20192;-77
2021/10/25 12:32:57;;;;;;;27.33;20.70;;;10.60;99.90;;;;;;4990063;28;20535;-76
2021/10/25 12:35:43;;;;;;;26.67;21.23;;;10.60;99.90;;;;;;4997910;28;20239;-76
2021/10/25 12:38:17;;;;;;;28.60;22.73;;;10.60;99.90;;;;;;4990689;28;20185;-76
2021/10/25 12:40:49;;;;;;;23.77;20.30;;;10.70;99.90;;;;;;4988550;28;20185;-76
2021/10/25 12:43:16;;;;;;;28.97;21.43;;;10.70;99.90;;;;;;4990535;28;20199;-77
2021/10/25 12:45:56;;;;;;;33.80;25.20;;;10.80;99.90;;;;;;4989203;28;20184;-77
2021/10/25 12:48:22;;;;;;;31.17;23.80;;;10.90;99.90;;;;;;4990846;28;20552;-78
2021/10/25 12:50:51;;;;;;;32.23;24.77;;;11.00;99.90;;;;;;4990463;28;20176;-76
2021/10/25 12:53:19;;;;;;;33.17;23.47;;;11.00;99.90;;;;;;4991020;28;20174;-76
2021/10/25 12:55:55;;;;;;;29.83;23.50;;;11.10;99.90;;;;;;4993030;28;20201;-78
2021/10/25 12:58:22;;;;;;;30.73;23.03;;;11.10;99.90;;;;;;4988809;28;20730;-78
2021/10/25 13:00:48;;;;;;;26.97;22.90;;;11.20;99.90;;;;;;4987826;28;20192;-77
2021/10/25 13:03:15;;;;;;;29.43;23.27;;;11.20;99.90;;;;;;4992356;28;20287;-77
2021/10/25 13:05:44;;;;;;;28.10;21.03;;;11.20;99.90;;;;;;4988142;28;20248;-77
2021/10/25 13:08:10;;;;;;;29.03;20.30;;;11.20;99.90;;;;;;4991603;28;20179;-76
2021/10/25 13:10:44;;;;;;;24.17;19.87;;;11.30;99.90;;;;;;4986323;28;20624;-77
2021/10/25 13:13:12;;;;;;;22.30;17.83;;;11.30;99.90;;;;;;4986127;28;20542;-77
2021/10/25 13:15:43;;;;;;;22.80;17.47;;;11.30;99.90;;;;;;4988668;28;20209;-77
2021/10/25 13:18:11;;;;;;;21.07;17.40;;;11.30;99.90;;;;;;5005829;28;20222;-78
2021/10/25 13:20:42;;;;;;;23.20;17.93;;;11.30;99.90;;;;;;4992359;28;20185;-76
2021/10/25 13:23:10;;;;;;;22.47;17.27;;;11.40;99.90;;;;;;4988449;28;20697;-76
2021/10/25 13:25:37;;;;;;;22.90;16.67;;;11.40;99.90;;;;;;4987065;28;20189;-77
2021/10/25 13:28:06;;;;;;;24.10;17.67;;;11.30;99.90;;;;;;4981601;28;20200;-77
2021/10/25 13:30:32;;;;;;;22.07;18.10;;;11.40;99.90;;;;;;4991507;28;20176;-77
2021/10/25 13:32:58;;;;;;;20.93;17.67;;;11.40;99.90;;;;;;4988401;28;20269;-78
2021/10/25 13:35:24;;;;;;;23.67;18.47;;;11.40;99.90;;;;;;4992776;28;20675;-77
2021/10/25 13:37:57;;;;;;;24.47;19.50;;;11.50;99.90;;;;;;4987194;28;20180;-76
2021/10/25 13:40:27;;;;;;;28.93;21.07;;;11.50;99.90;;;;;;4985837;28;20204;-77
2021/10/25 13:42:54;;;;;;;23.73;17.17;;;11.50;99.90;;;;;;4983791;28;20660;-77
2021/10/25 13:45:20;;;;;;;22.83;17.33;;;11.50;99.90;;;;;;4988721;28;20712;-76
2021/10/25 13:47:47;;;;;;;19.53;16.00;;;11.50;99.90;;;;;;4984666;28;20692;-78
2021/10/25 13:50:13;;;;;;;21.97;16.17;;;11.50;99.90;;;;;;4985602;28;20261;-75
2021/10/25 13:52:39;;;;;;;19.80;15.63;;;11.50;99.90;;;;;;4989030;28;20240;-77
2021/10/25 13:55:06;;;;;;;20.90;16.17;;;11.50;99.90;;;;;;4989209;28;20607;-77
2021/10/25 13:57:40;;;;;;;20.57;15.47;;;11.50;99.90;;;;;;4991244;28;20179;-77
2021/10/25 14:00:11;;;;;;;21.20;16.57;;;11.50;99.90;;;;;;4988385;28;20231;-77
2021/10/25 14:02:40;;;;;;;21.93;16.50;;;11.50;99.90;;;;;;5005802;28;20864;-77
2021/10/25 14:05:07;;;;;;;19.27;16.37;;;11.50;99.90;;;;;;4990892;28;20205;-78
2021/10/25 14:07:34;;;;;;;21.57;16.30;;;11.50;99.90;;;;;;4986663;28;20174;-77
2021/10/25 14:10:13;;;;;;;21.63;16.43;;;11.50;99.90;;;;;;4987962;28;20671;-77
2021/10/25 14:12:40;;;;;;;21.13;17.07;;;11.50;99.90;;;;;;4986712;28;20178;-78
2021/10/25 14:17:38;;;;;;;21.53;16.80;;;11.50;99.90;;;;;;4990015;28;20282;-79
2021/10/25 14:20:06;;;;;;;21.47;17.30;;;11.50;99.90;;;;;;4991803;28;20653;-76
2021/10/25 14:22:31;;;;;;;25.30;17.53;;;11.50;99.90;;;;;;4988364;28;20238;-77
2021/10/25 14:24:57;;;;;;;22.63;18.30;;;11.50;99.90;;;;;;5005110;28;20242;-77
2021/10/25 14:27:23;;;;;;;19.47;16.83;;;11.50;99.90;;;;;;4985764;28;20260;-76
2021/10/25 14:29:48;;;;;;;26.33;19.37;;;11.50;99.90;;;;;;4988225;28;20273;-77
2021/10/25 14:32:14;;;;;;;24.90;19.87;;;11.50;99.90;;;;;;4991656;28;20603;-77
2021/10/25 14:34:39;;;;;;;26.53;19.23;;;11.50;99.90;;;;;;4985866;28;20195;-77
2021/10/25 14:37:08;;;;;;;27.97;20.73;;;11.50;99.90;;;;;;4986705;28;21010;-78
2021/10/25 14:39:41;;;;;;;26.83;20.10;;;11.50;99.90;;;;;;4982746;28;20180;-77